Time;durP1;ratioP1;P1;durP2;ratioP2;P2;SDS_P1;SDS_P2;PMS_P1;PMS_P2;Temp;Humidity;BMP_temperature;BMP_pressure;BME280_temperature;BME280_humidity;BME280_pressure;Samples;Min_cycle;Max_cycle;Signal;HPM_P1;HPM_P2
2020/12/29 00:01:31;;;;;;;1.87;1.77;;;;;;;2.47;81.33;92503.31;5067328;28;20201;-75
2020/12/29 00:03:57;;;;;;;2.00;1.80;;;;;;;2.55;81.66;92507.38;5066503;28;20211;-74
2020/12/29 00:06:23;;;;;;;2.87;2.10;;;;;;;2.63;81.33;92502.06;5066849;28;20577;-75
2020/12/29 00:08:49;;;;;;;2.10;1.90;;;;;;;2.60;81.11;92500.72;5067042;28;20292;-74
2020/12/29 00:11:15;;;;;;;1.87;1.77;;;;;;;2.66;81.06;92499.13;5066455;28;20205;-75
2020/12/29 00:13:42;;;;;;;3.13;2.30;;;;;;;2.68;80.74;92518.25;5066392;28;20216;-75
2020/12/29 00:16:08;;;;;;;2.17;1.97;;;;;;;2.75;79.65;92518.97;5066579;28;20205;-74
2020/12/29 00:18:38;;;;;;;2.00;1.80;;;;;;;2.69;78.81;92527.41;5066687;28;20197;-76
2020/12/29 00:21:04;;;;;;;1.50;1.40;;;;;;;2.65;79.07;92523.75;5066363;28;20225;-77
2020/12/29 00:23:30;;;;;;;1.90;1.80;;;;;;;2.66;78.48;92532.13;5066288;28;20570;-76
2020/12/29 00:25:56;;;;;;;1.90;1.60;;;;;;;2.57;77.58;92526.50;5066160;28;20197;-77
2020/12/29 00:28:22;;;;;;;1.60;1.50;;;;;;;2.57;78.24;92536.66;5067762;28;20209;-77
2020/12/29 00:30:49;;;;;;;1.80;1.70;;;;;;;2.58;78.22;92532.34;5070409;28;20305;-77
2020/12/29 00:33:15;;;;;;;1.60;1.50;;;;;;;2.64;78.08;92534.09;5069935;28;20201;-77
2020/12/29 00:35:40;;;;;;;1.73;1.63;;;;;;;2.57;78.30;92529.03;5069798;28;20200;-77
2020/12/29 00:38:06;;;;;;;1.90;1.70;;;;;;;2.50;78.13;92532.63;5069912;28;20193;-77
2020/12/29 00:40:32;;;;;;;1.63;1.53;;;;;;;2.59;77.95;92539.78;5070037;28;20251;-77
2020/12/29 00:42:58;;;;;;;1.83;1.60;;;;;;;2.70;77.07;92544.19;5069996;28;20192;-75
2020/12/29 00:45:24;;;;;;;2.00;1.53;;;;;;;2.80;76.06;92553.94;5069633;28;20201;-76
2020/12/29 00:47:51;;;;;;;2.13;1.60;;;;;;;2.81;75.34;92552.94;5070112;28;20193;-75
2020/12/29 00:50:17;;;;;;;1.40;1.30;;;;;;;2.87;74.81;92553.91;5070206;28;20221;-77
2020/12/29 00:52:42;;;;;;;2.00;1.43;;;;;;;2.81;74.50;92558.03;5069679;28;20250;-75
2020/12/29 00:55:08;;;;;;;1.43;1.20;;;;;;;2.84;74.96;92561.94;5069420;28;20603;-75
2020/12/29 00:57:34;;;;;;;1.30;1.20;;;;;;;2.87;74.89;92567.38;5069753;28;20205;-75
2020/12/29 01:00:00;;;;;;;1.50;1.40;;;;;;;2.77;74.17;92569.56;5070401;28;20278;-75
2020/12/29 01:02:26;;;;;;;1.60;1.50;;;;;;;2.83;74.47;92566.22;5069506;28;20723;-76
2020/12/29 01:04:52;;;;;;;1.73;1.30;;;;;;;2.88;73.41;92568.94;5069656;28;20200;-75
2020/12/29 01:07:18;;;;;;;1.50;1.30;;;;;;;2.94;73.96;92554.63;5069732;28;20201;-76
2020/12/29 01:09:44;;;;;;;1.33;1.23;;;;;;;2.93;74.16;92556.38;5069743;28;20235;-75
2020/12/29 01:12:10;;;;;;;1.20;1.10;;;;;;;2.96;73.89;92561.06;5069810;28;20246;-76
2020/12/29 01:14:36;;;;;;;1.17;1.10;;;;;;;2.88;74.41;92547.84;5069542;28;20220;-75
2020/12/29 01:17:02;;;;;;;2.20;1.40;;;;;;;2.80;74.99;92550.63;5069391;28;20204;-77
2020/12/29 01:19:28;;;;;;;1.20;1.10;;;;;;;2.88;75.00;92555.47;5069575;28;20229;-76
2020/12/29 01:21:54;;;;;;;1.73;1.10;;;;;;;2.98;74.80;92554.03;5069214;28;20602;-73
2020/12/29 01:24:21;;;;;;;1.40;1.00;;;;;;;3.04;74.48;92554.97;5068919;28;20197;-75
2020/12/29 01:26:47;;;;;;;1.40;1.30;;;;;;;3.02;73.83;92550.09;5069673;28;20189;-74
2020/12/29 01:29:13;;;;;;;1.50;1.10;;;;;;;3.08;73.93;92554.34;5069676;28;20742;-77
2020/12/29 01:31:39;;;;;;;1.10;1.00;;;;;;;3.18;74.23;92558.97;5069319;28;20197;-78
2020/12/29 01:34:05;;;;;;;1.23;1.13;;;;;;;3.24;73.62;92575.97;5068878;28;20244;-77
2020/12/29 01:36:31;;;;;;;1.00;1.00;;;;;;;3.27;73.11;92578.06;5069324;28;20205;-75
2020/12/29 01:38:58;;;;;;;1.33;1.20;;;;;;;3.31;73.38;92575.88;5068924;28;20362;-75
2020/12/29 01:41:24;;;;;;;1.33;1.23;;;;;;;3.34;74.00;92583.09;5068851;28;20197;-76
2020/12/29 01:43:50;;;;;;;1.80;1.20;;;;;;;3.27;75.38;92580.59;5068642;28;20227;-76
2020/12/29 01:46:17;;;;;;;1.20;1.10;;;;;;;3.26;75.66;92581.63;5069207;28;20201;-75
2020/12/29 01:48:43;;;;;;;1.30;1.20;;;;;;;3.28;75.34;92578.84;5068676;28;20204;-75
2020/12/29 01:51:09;;;;;;;1.33;1.23;;;;;;;3.27;75.91;92584.94;5068968;28;20247;-76
2020/12/29 01:53:38;;;;;;;1.47;1.37;;;;;;;3.24;76.06;92578.50;5068627;28;20224;-77
2020/12/29 01:56:08;;;;;;;1.33;1.23;;;;;;;3.08;76.27;92584.03;5068652;28;20209;-77
2020/12/29 01:58:36;;;;;;;2.03;1.57;;;;;;;3.10;75.84;92572.69;5068333;28;20201;-75
2020/12/29 02:01:02;;;;;;;1.40;1.20;;;;;;;3.00;76.56;92584.31;5068886;28;20221;-75
2020/12/29 02:03:28;;;;;;;1.50;1.20;;;;;;;3.03;76.69;92592.31;5068623;28;20200;-75
2020/12/29 02:05:54;;;;;;;1.20;1.10;;;;;;;3.09;76.36;92583.84;5068334;28;20213;-75
2020/12/29 02:08:20;;;;;;;1.30;1.20;;;;;;;3.15;76.18;92609.44;5068574;28;20727;-75
2020/12/29 02:10:46;;;;;;;1.30;1.20;;;;;;;3.17;75.87;92610.78;5068803;28;20228;-75
2020/12/29 02:13:13;;;;;;;2.07;1.27;;;;;;;3.20;76.06;92607.84;5068629;28;20621;-74
2020/12/29 02:15:39;;;;;;;1.47;1.10;;;;;;;3.18;75.37;92621.75;5068115;28;20258;-75
2020/12/29 02:18:05;;;;;;;2.27;1.17;;;;;;;3.17;75.72;92620.19;5067989;28;20866;-76
2020/12/29 02:20:31;;;;;;;1.23;1.07;;;;;;;3.13;75.19;92620.59;5067848;28;20212;-75
2020/12/29 02:22:57;;;;;;;1.37;1.00;;;;;;;3.13;75.11;92625.66;5067892;28;20211;-75
2020/12/29 02:25:23;;;;;;;1.07;1.00;;;;;;;3.14;75.10;92636.59;5068003;28;20566;-76
2020/12/29 02:27:51;;;;;;;1.10;1.00;;;;;;;3.20;75.24;92635.03;5068580;28;20196;-75
2020/12/29 02:30:18;;;;;;;1.43;1.00;;;;;;;3.23;75.55;92630.31;5068240;28;20213;-75
2020/12/29 02:32:44;;;;;;;1.33;1.23;;;;;;;3.20;76.27;92620.56;5068007;28;20209;-77
2020/12/29 02:35:15;;;;;;;1.20;0.93;;;;;;;3.09;76.18;92609.25;5067456;28;20722;-75
2020/12/29 02:37:41;;;;;;;1.30;1.20;;;;;;;3.17;75.92;92631.13;5068303;28;20192;-75
2020/12/29 02:40:08;;;;;;;1.23;1.03;;;;;;;3.21;75.81;92646.75;5067850;28;20369;-75
2020/12/29 02:42:34;;;;;;;1.27;1.17;;;;;;;3.24;75.39;92654.75;5068350;28;20193;-75
2020/12/29 02:45:00;;;;;;;1.07;1.00;;;;;;;3.24;75.58;92656.53;5067591;28;20211;-75
2020/12/29 02:47:26;;;;;;;2.70;1.00;;;;;;;3.24;75.66;92669.22;5067619;28;20200;-75
2020/12/29 02:49:52;;;;;;;0.90;0.90;;;;;;;3.24;75.71;92685.25;5067298;28;20228;-75
2020/12/29 02:52:18;;;;;;;1.43;1.00;;;;;;;3.19;75.90;92679.22;5067607;28;20679;-75
2020/12/29 02:54:44;;;;;;;1.47;0.80;;;;;;;3.18;75.96;92677.66;5067427;28;20224;-75
2020/12/29 02:57:10;;;;;;;1.03;1.00;;;;;;;3.13;76.19;92671.41;5067967;28;20196;-76
2020/12/29 02:59:36;;;;;;;1.10;0.97;;;;;;;3.20;75.74;92678.22;5068166;28;20718;-75
2020/12/29 03:02:02;;;;;;;0.87;0.87;;;;;;;3.21;76.02;92678.03;5067450;28;20196;-75
2020/12/29 03:04:28;;;;;;;0.80;0.80;;;;;;;3.27;75.63;92686.63;5068083;28;20197;-75
2020/12/29 03:06:54;;;;;;;0.90;0.90;;;;;;;3.27;75.81;92684.81;5067589;28;20205;-75
2020/12/29 03:09:20;;;;;;;1.37;1.10;;;;;;;3.28;75.65;92685.59;5067267;28;20280;-75
2020/12/29 03:11:46;;;;;;;0.90;0.80;;;;;;;3.30;75.91;92676.03;5067498;28;20203;-75
2020/12/29 03:14:13;;;;;;;1.07;0.90;;;;;;;3.27;76.10;92674.66;5067544;28;20910;-75
2020/12/29 03:16:40;;;;;;;1.00;0.90;;;;;;;3.24;76.40;92669.22;5067290;28;20205;-74
2020/12/29 03:19:06;;;;;;;0.80;0.80;;;;;;;3.24;76.29;92669.22;5067718;28;20220;-75
2020/12/29 03:21:32;;;;;;;1.00;0.90;;;;;;;3.22;75.76;92671.97;5067272;28;20216;-75
2020/12/29 03:23:58;;;;;;;1.40;0.90;;;;;;;3.23;75.80;92672.75;5067540;28;20243;-75
2020/12/29 03:26:25;;;;;;;1.10;1.00;;;;;;;3.25;76.09;92683.50;5067346;28;20657;-74
2020/12/29 03:28:53;;;;;;;1.00;0.90;;;;;;;3.24;75.77;92679.41;5067943;28;20202;-75
2020/12/29 03:31:20;;;;;;;0.83;0.80;;;;;;;3.18;75.93;92675.91;5066746;28;20808;-75
2020/12/29 03:33:46;;;;;;;0.80;0.80;;;;;;;3.21;76.00;92685.66;5067061;28;20220;-75
2020/12/29 03:36:12;;;;;;;0.80;0.80;;;;;;;3.25;75.57;92686.03;5067490;28;20819;-75
2020/12/29 03:38:38;;;;;;;0.80;0.80;;;;;;;3.28;75.61;92685.59;5067197;28;20201;-74
2020/12/29 03:41:04;;;;;;;0.97;0.90;;;;;;;3.30;74.94;92681.88;5067606;28;20274;-76
2020/12/29 03:43:30;;;;;;;1.13;1.03;;;;;;;3.35;75.29;92694.00;5067198;28;20192;-77
2020/12/29 03:45:56;;;;;;;0.80;0.80;;;;;;;3.34;74.71;92687.34;5067624;28;20211;-75
2020/12/29 03:48:25;;;;;;;0.90;0.90;;;;;;;3.36;74.88;92693.00;5067217;28;20205;-74
2020/12/29 03:50:51;;;;;;;0.80;0.80;;;;;;;3.38;74.85;92696.91;5067445;28;20219;-76
2020/12/29 03:53:17;;;;;;;0.77;0.77;;;;;;;3.39;74.88;92708.66;5067306;28;20197;-75
2020/12/29 03:55:43;;;;;;;0.90;0.90;;;;;;;3.40;74.73;92701.78;5066912;28;20219;-74
2020/12/29 03:58:09;;;;;;;1.10;1.00;;;;;;;3.38;75.44;92722.34;5067142;28;20211;-75
2020/12/29 04:00:38;;;;;;;3.10;1.07;;;;;;;3.29;75.47;92718.44;5067095;28;20225;-75
2020/12/29 04:03:04;;;;;;;0.93;0.90;;;;;;;3.31;75.42;92731.75;5067671;28;20203;-76
2020/12/29 04:05:31;;;;;;;1.10;1.00;;;;;;;3.35;75.18;92743.06;5070906;28;20197;-74
2020/12/29 04:07:57;;;;;;;0.97;0.90;;;;;;;3.37;75.68;92740.34;5070652;28;20211;-75
2020/12/29 04:10:23;;;;;;;0.80;0.80;;;;;;;3.40;75.23;92735.63;5070447;28;20225;-75
2020/12/29 04:12:49;;;;;;;1.23;1.13;;;;;;;3.37;74.78;92728.41;5070823;28;20220;-74
2020/12/29 04:15:15;;;;;;;0.80;0.80;;;;;;;3.35;75.28;92724.50;5071049;28;20228;-74
2020/12/29 04:17:43;;;;;;;0.93;0.87;;;;;;;3.36;75.41;92728.59;5070654;28;20188;-76
2020/12/29 04:20:10;;;;;;;0.93;0.93;;;;;;;3.36;75.23;92729.38;5071035;28;20217;-75
2020/12/29 04:22:38;;;;;;;1.17;1.00;;;;;;;3.39;75.21;92731.53;5070676;28;20193;-75
2020/12/29 04:25:06;;;;;;;1.00;0.90;;;;;;;3.40;75.25;92730.53;5070461;28;20250;-76
2020/12/29 04:27:32;;;;;;;3.20;0.90;;;;;;;3.39;75.52;92739.16;5070161;28;20881;-75
2020/12/29 04:29:58;;;;;;;1.20;1.10;;;;;;;3.39;75.48;92746.00;5070203;28;20649;-74
2020/12/29 04:32:24;;;;;;;0.87;0.87;;;;;;;3.36;75.53;92752.28;5070711;28;20204;-75
2020/12/29 04:34:53;;;;;;;1.10;1.00;;;;;;;3.37;75.37;92753.03;5069476;28;20635;-75
2020/12/29 04:37:18;;;;;;;1.07;1.00;;;;;;;3.34;75.42;92756.00;5070233;28;20197;-76
2020/12/29 04:39:45;;;;;;;1.20;1.00;;;;;;;3.32;75.76;92756.19;5070116;28;20350;-75
2020/12/29 04:42:13;;;;;;;1.30;1.10;;;;;;;3.36;75.63;92759.91;5070004;28;20193;-75
2020/12/29 04:44:39;;;;;;;1.00;0.90;;;;;;;3.38;75.35;92768.09;5069995;28;20185;-76
2020/12/29 04:47:06;;;;;;;0.90;0.90;;;;;;;3.41;74.81;92777.09;5070529;28;20192;-75
2020/12/29 04:49:33;;;;;;;1.70;1.10;;;;;;;3.39;74.99;92794.31;5069565;28;20212;-74
2020/12/29 04:52:03;;;;;;;1.33;1.03;;;;;;;3.39;75.09;92790.00;5070625;28;20203;-75
2020/12/29 04:54:32;;;;;;;0.90;0.90;;;;;;;3.23;76.12;92789.69;5069439;28;20212;-74
2020/12/29 04:57:01;;;;;;;1.47;1.20;;;;;;;3.03;77.79;92779.56;5069974;28;20201;-75
2020/12/29 04:59:27;;;;;;;1.30;1.20;;;;;;;2.86;78.54;92796.22;5069875;28;20335;-74
2020/12/29 05:01:53;;;;;;;1.10;1.00;;;;;;;2.89;78.77;92819.44;5069717;28;20211;-75
2020/12/29 05:04:21;;;;;;;0.90;0.90;;;;;;;2.87;78.75;92833.34;5069439;28;20193;-75
2020/12/29 05:06:47;;;;;;;1.10;1.00;;;;;;;2.86;78.78;92836.88;5069621;28;20204;-75
2020/12/29 05:09:13;;;;;;;1.07;0.90;;;;;;;2.80;78.71;92813.03;5069375;28;20220;-75
2020/12/29 05:11:39;;;;;;;1.00;0.90;;;;;;;2.69;79.00;92808.56;5069996;28;20228;-75
2020/12/29 05:14:06;;;;;;;1.00;1.00;;;;;;;2.72;78.65;92811.47;5068790;28;20221;-76
2020/12/29 05:16:37;;;;;;;1.00;1.00;;;;;;;2.84;78.05;92833.75;5069483;28;20197;-74
2020/12/29 05:19:09;;;;;;;0.90;0.90;;;;;;;2.89;77.23;92849.94;5069455;28;20209;-75
2020/12/29 05:21:37;;;;;;;0.90;0.90;;;;;;;3.00;76.17;92843.50;5069977;28;20205;-76
2020/12/29 05:24:09;;;;;;;1.10;1.00;;;;;;;3.03;75.93;92840.56;5068722;28;20837;-76
2020/12/29 05:26:35;;;;;;;1.87;0.90;;;;;;;3.01;75.98;92838.22;5069384;28;20750;-76
2020/12/29 05:29:03;;;;;;;0.83;0.83;;;;;;;2.88;76.38;92832.38;5069733;28;20201;-77
2020/12/29 05:31:32;;;;;;;1.47;0.90;;;;;;;2.92;76.02;92843.69;5069131;28;20274;-75
2020/12/29 05:33:58;;;;;;;0.80;0.80;;;;;;;2.93;76.09;92843.47;5068881;28;20775;-75
2020/12/29 05:36:25;;;;;;;1.20;1.00;;;;;;;3.00;75.74;92851.09;5069381;28;20204;-74
2020/12/29 05:38:55;;;;;;;1.20;1.10;;;;;;;3.01;75.61;92861.09;5068752;28;20201;-75
2020/12/29 05:41:22;;;;;;;0.80;0.80;;;;;;;3.01;75.30;92861.09;5069234;28;20211;-76
2020/12/29 05:44:01;;;;;;;1.17;0.80;;;;;;;3.08;75.11;92851.66;5066958;28;20201;-75
2020/12/29 05:46:28;;;;;;;0.80;0.80;;;;;;;3.06;74.60;92850.31;5068333;28;20232;-76
2020/12/29 05:48:55;;;;;;;0.93;0.90;;;;;;;3.08;74.41;92855.97;5065648;28;20227;-77
2020/12/29 05:51:22;;;;;;;1.00;0.90;;;;;;;3.08;73.89;92876.31;5065344;28;20213;-75
2020/12/29 05:53:48;;;;;;;1.80;0.80;;;;;;;3.05;73.22;92881.81;5065707;28;20197;-77
2020/12/29 05:56:14;;;;;;;0.87;0.87;;;;;;;3.05;73.09;92886.88;5068694;28;20204;-76
2020/12/29 05:58:41;;;;;;;1.10;0.90;;;;;;;3.08;72.88;92887.25;5067839;28;20197;-77
2020/12/29 06:01:08;;;;;;;1.00;0.90;;;;;;;3.10;72.21;92890.38;5068556;28;20220;-77
2020/12/29 06:03:36;;;;;;;0.93;0.80;;;;;;;3.10;72.32;92892.91;5067837;28;20698;-77
2020/12/29 06:06:06;;;;;;;0.90;0.90;;;;;;;3.12;71.59;92896.03;5055179;28;20201;-77
2020/12/29 06:08:35;;;;;;;0.87;0.87;;;;;;;3.16;71.87;92893.91;5067206;28;20219;-77
2020/12/29 06:11:11;;;;;;;1.00;0.97;;;;;;;3.19;71.54;92902.91;5049851;28;20279;-76
2020/12/29 06:13:38;;;;;;;0.80;0.80;;;;;;;3.21;71.01;92906.81;5048258;28;20588;-75
2020/12/29 06:16:05;;;;;;;1.10;1.00;;;;;;;3.21;71.01;92911.88;5048661;28;20296;-76
2020/12/29 06:18:35;;;;;;;1.10;1.00;;;;;;;3.20;70.84;92909.53;5048394;28;20201;-78
2020/12/29 06:21:07;;;;;;;1.87;1.00;;;;;;;3.23;70.84;92907.41;5048383;28;20239;-77
2020/12/29 06:23:38;;;;;;;1.13;0.90;;;;;;;3.23;70.35;92917.56;5047741;28;20712;-77
2020/12/29 06:26:06;;;;;;;1.07;1.00;;;;;;;3.21;70.72;92916.19;5047185;28;20208;-77
2020/12/29 06:28:42;;;;;;;0.97;0.90;;;;;;;3.24;70.10;92914.03;5047933;28;20202;-78
2020/12/29 06:31:10;;;;;;;1.10;1.00;;;;;;;3.29;70.23;92915.97;5048076;28;20260;-77
2020/12/29 06:33:38;;;;;;;0.80;0.80;;;;;;;3.37;70.23;92918.31;5047888;28;20201;-74
2020/12/29 06:36:07;;;;;;;0.90;0.90;;;;;;;3.36;69.15;92917.53;5047792;28;20255;-77
2020/12/29 06:38:35;;;;;;;1.67;1.20;;;;;;;3.35;68.65;92930.44;5047927;28;20696;-77
2020/12/29 06:41:05;;;;;;;0.90;0.90;;;;;;;3.41;69.03;92930.44;5048128;28;20236;-74
2020/12/29 06:43:33;;;;;;;1.20;1.10;;;;;;;3.42;68.98;92943.94;5060191;28;20207;-77
2020/12/29 06:46:10;;;;;;;1.00;1.00;;;;;;;3.37;68.80;92953.91;5067305;28;20197;-76
2020/12/29 06:48:36;;;;;;;1.30;1.20;;;;;;;3.33;68.62;92952.75;5068074;28;20197;-74
2020/12/29 06:51:09;;;;;;;1.83;1.27;;;;;;;3.34;69.18;92950.00;5067923;28;20221;-77
2020/12/29 06:53:35;;;;;;;0.90;0.90;;;;;;;3.26;68.51;92957.84;5060039;28;20676;-75
2020/12/29 06:56:01;;;;;;;0.90;0.90;;;;;;;3.29;68.94;92961.72;5056099;28;20211;-74
2020/12/29 06:58:32;;;;;;;0.90;0.90;;;;;;;3.28;69.17;92970.34;5067770;28;20216;-76
2020/12/29 07:01:18;;;;;;;1.00;1.00;;;;;;;3.32;68.76;92976.59;5067824;28;20251;-79
2020/12/29 07:03:47;;;;;;;1.37;1.13;;;;;;;3.34;69.08;92985.59;5067085;28;20284;-74
2020/12/29 07:06:14;;;;;;;1.23;1.10;;;;;;;3.34;68.29;92983.06;5067219;28;20207;-75
2020/12/29 07:08:39;;;;;;;1.00;0.90;;;;;;;3.29;68.90;93003.19;5067364;28;20204;-74
2020/12/29 07:11:16;;;;;;;1.20;1.10;;;;;;;3.24;68.78;93010.66;5067784;28;20248;-75
2020/12/29 07:13:42;;;;;;;1.40;1.00;;;;;;;3.20;68.82;93009.47;5067113;28;20291;-74
2020/12/29 07:16:12;;;;;;;2.23;1.20;;;;;;;3.23;68.79;93021.00;5067265;28;20628;-74
2020/12/29 07:18:43;;;;;;;1.20;1.10;;;;;;;3.29;68.69;93020.19;5067894;28;20200;-74
2020/12/29 07:21:24;;;;;;;1.27;1.17;;;;;;;3.33;68.40;93024.72;5067677;28;20205;-74
2020/12/29 07:23:51;;;;;;;1.07;1.00;;;;;;;3.30;68.60;93032.72;5067535;28;20196;-75
2020/12/29 07:26:19;;;;;;;1.30;1.10;;;;;;;3.27;68.23;93030.56;5067704;28;20236;-75
2020/12/29 07:28:45;;;;;;;1.13;1.03;;;;;;;3.24;67.87;93035.28;5067356;28;20228;-75
2020/12/29 07:31:14;;;;;;;1.07;1.07;;;;;;;3.27;67.97;93034.91;5067675;28;20200;-77
2020/12/29 07:33:49;;;;;;;1.53;1.00;;;;;;;3.33;68.06;93036.63;5067434;28;20235;-76
2020/12/29 07:36:17;;;;;;;1.33;1.20;;;;;;;3.35;67.03;93044.84;5067927;28;20223;-76
2020/12/29 07:38:46;;;;;;;1.33;1.23;;;;;;;3.30;66.94;93047.19;5070121;28;20232;-76
2020/12/29 07:41:13;;;;;;;2.03;1.20;;;;;;;3.33;67.30;93047.59;5071906;28;20209;-75
2020/12/29 07:43:39;;;;;;;1.20;1.07;;;;;;;3.41;67.06;93057.59;5071681;28;20723;-74
2020/12/29 07:46:06;;;;;;;1.90;1.00;;;;;;;3.44;66.36;93051.34;5071731;28;20251;-76
2020/12/29 07:48:32;;;;;;;1.20;1.10;;;;;;;3.46;66.45;93055.22;5071712;28;20197;-76
2020/12/29 07:50:59;;;;;;;1.20;1.07;;;;;;;3.49;65.34;93066.75;5071840;28;20228;-76
2020/12/29 07:53:24;;;;;;;1.23;1.13;;;;;;;3.61;65.94;93069.53;5072775;28;20283;-75
2020/12/29 07:55:52;;;;;;;1.40;1.23;;;;;;;3.70;64.76;93075.97;5071039;28;20226;-76
2020/12/29 07:58:18;;;;;;;1.23;1.13;;;;;;;3.87;64.38;93086.53;5071221;28;20197;-76
2020/12/29 08:00:44;;;;;;;1.57;1.27;;;;;;;3.86;63.75;93080.66;5070326;28;20220;-76
2020/12/29 08:03:11;;;;;;;1.60;1.00;;;;;;;3.94;63.22;93080.47;5056969;28;20577;-76
2020/12/29 08:05:37;;;;;;;1.10;1.00;;;;;;;4.07;62.71;93087.28;5050051;28;20232;-77
2020/12/29 08:08:05;;;;;;;2.00;1.00;;;;;;;4.25;62.38;93096.84;5051014;28;20228;-78
2020/12/29 08:10:32;;;;;;;1.07;0.97;;;;;;;4.39;60.47;93095.88;5050521;28;20221;-76
2020/12/29 08:13:00;;;;;;;1.57;1.00;;;;;;;4.54;60.50;93103.25;5051111;28;20295;-76
2020/12/29 08:15:28;;;;;;;1.10;0.90;;;;;;;4.69;60.02;93098.69;5050775;28;20339;-75
2020/12/29 08:18:05;;;;;;;1.07;0.97;;;;;;;4.83;58.32;93116.28;5051215;28;20212;-76
2020/12/29 08:20:31;;;;;;;1.10;1.00;;;;;;;5.04;58.15;93114.44;5050995;28;20220;-76
2020/12/29 08:22:58;;;;;;;1.03;0.93;;;;;;;5.09;56.88;93117.16;5050819;28;20254;-76
2020/12/29 08:25:26;;;;;;;0.90;0.80;;;;;;;5.25;57.38;93123.56;5050223;28;20190;-76
2020/12/29 08:27:52;;;;;;;1.30;1.00;;;;;;;5.49;57.08;93130.50;5051305;28;20621;-79
2020/12/29 08:30:19;;;;;;;0.93;0.70;;;;;;;5.64;55.55;93127.63;5050959;28;20255;-75
2020/12/29 08:32:47;;;;;;;0.80;0.80;;;;;;;5.70;54.41;93129.38;5050667;28;20778;-76
2020/12/29 08:35:13;;;;;;;1.20;1.03;;;;;;;5.91;55.45;93133.38;5050608;28;20228;-76
2020/12/29 08:37:55;;;;;;;1.50;0.97;;;;;;;6.17;55.18;93135.69;5050731;28;20209;-76
2020/12/29 08:40:23;;;;;;;0.93;0.90;;;;;;;6.35;54.79;93135.00;5051017;28;20232;-75
2020/12/29 08:42:50;;;;;;;0.83;0.80;;;;;;;6.43;54.58;93143.16;5050200;28;20234;-75
2020/12/29 08:45:16;;;;;;;0.80;0.80;;;;;;;6.56;54.60;93145.56;5050701;28;20205;-78
2020/12/29 08:47:45;;;;;;;1.50;1.00;;;;;;;6.64;53.90;93159.06;5051265;28;20250;-75
2020/12/29 08:50:22;;;;;;;1.03;0.97;;;;;;;6.70;53.70;93159.03;5065059;28;20312;-76
2020/12/29 08:52:52;;;;;;;0.90;0.90;;;;;;;6.74;53.60;93167.03;5070636;28;20236;-76
2020/12/29 08:55:29;;;;;;;1.07;0.87;;;;;;;6.65;53.75;93176.75;5070232;28;20308;-75
2020/12/29 08:57:56;;;;;;;0.90;0.80;;;;;;;6.81;54.12;93175.41;5070173;28;20617;-75
2020/12/29 09:00:23;;;;;;;0.90;0.90;;;;;;;6.81;53.67;93183.88;5070210;28;20252;-77
2020/12/29 09:02:50;;;;;;;1.10;0.83;;;;;;;6.94;53.71;93188.06;5070204;28;20258;-76
2020/12/29 09:05:24;;;;;;;1.37;1.00;;;;;;;6.96;53.84;93188.63;5069868;28;20207;-78
2020/12/29 09:07:50;;;;;;;1.00;0.90;;;;;;;6.90;53.19;93182.63;5070214;28;20204;-75
2020/12/29 09:10:17;;;;;;;1.03;0.90;;;;;;;6.92;53.24;93192.63;5069817;28;20256;-77
2020/12/29 09:12:43;;;;;;;0.90;0.80;;;;;;;7.06;53.10;93195.81;5069756;28;20200;-76
2020/12/29 09:15:11;;;;;;;1.00;0.90;;;;;;;7.23;53.38;93204.47;5065715;28;20267;-76
2020/12/29 09:17:37;;;;;;;0.90;0.90;;;;;;;7.58;53.47;93214.88;5050036;28;20193;-76
2020/12/29 09:20:19;;;;;;;1.73;1.10;;;;;;;7.68;51.92;93209.25;5049354;28;20218;-73
2020/12/29 09:23:00;;;;;;;0.80;0.80;;;;;;;7.73;51.02;93211.94;5050104;28;20197;-75
2020/12/29 09:25:29;;;;;;;1.20;1.07;;;;;;;7.84;51.00;93216.34;5049168;28;20198;-77
2020/12/29 09:28:26;;;;;;;3.13;1.03;;;;;;;8.00;50.90;93222.63;5049223;28;20208;-75
2020/12/29 09:30:59;;;;;;;1.10;1.00;;;;;;;7.97;50.30;93229.75;5049160;28;20260;-75
2020/12/29 09:33:26;;;;;;;2.30;2.00;;;;;;;8.02;51.01;93231.66;5049377;28;20201;-75
2020/12/29 09:35:53;;;;;;;2.77;1.63;;;;;;;8.04;49.81;93237.34;5048522;28;20724;-75
2020/12/29 09:38:20;;;;;;;1.43;1.20;;;;;;;8.04;50.17;93250.16;5048879;28;20197;-75
2020/12/29 09:40:48;;;;;;;1.43;0.90;;;;;;;8.09;50.93;93257.94;5048890;28;20221;-76
2020/12/29 09:43:14;;;;;;;0.73;0.73;;;;;;;8.15;50.38;93259.66;5048978;28;20202;-78
2020/12/29 09:45:43;;;;;;;0.93;0.87;;;;;;;8.19;50.13;93258.22;5048982;28;20250;-75
2020/12/29 09:48:09;;;;;;;1.00;0.90;;;;;;;8.16;49.56;93268.91;5048949;28;20689;-75
2020/12/29 09:50:35;;;;;;;1.30;1.00;;;;;;;8.16;51.00;93274.03;5058112;28;20217;-75
2020/12/29 09:53:01;;;;;;;1.17;0.90;;;;;;;8.16;50.14;93271.47;5068547;28;20207;-74
2020/12/29 09:55:27;;;;;;;0.90;0.80;;;;;;;8.13;49.94;93277.03;5068190;28;20231;-75
2020/12/29 09:57:53;;;;;;;1.07;0.90;;;;;;;8.08;50.20;93271.00;5068608;28;20325;-76
2020/12/29 10:00:19;;;;;;;1.00;0.90;;;;;;;8.07;49.77;93274.56;5068150;28;20281;-78
2020/12/29 10:02:45;;;;;;;1.80;0.70;;;;;;;8.06;49.88;93284.03;5068201;28;20227;-74
2020/12/29 10:05:11;;;;;;;1.33;0.87;;;;;;;8.16;49.70;93281.72;5068168;28;20233;-75
2020/12/29 10:07:37;;;;;;;0.80;0.80;;;;;;;8.17;49.48;93285.06;5068221;28;20209;-75
2020/12/29 10:10:04;;;;;;;1.37;0.80;;;;;;;8.35;50.46;93276.56;5068339;28;20266;-74
2020/12/29 10:12:30;;;;;;;0.80;0.80;;;;;;;8.40;49.23;93280.03;5068484;28;20200;-75
2020/12/29 10:14:56;;;;;;;0.80;0.80;;;;;;;8.38;49.67;93284.59;5068016;28;20742;-75
2020/12/29 10:17:22;;;;;;;0.73;0.73;;;;;;;8.20;49.70;93293.09;5068348;28;20200;-75
2020/12/29 10:19:48;;;;;;;1.87;0.90;;;;;;;8.03;49.35;93287.03;5067055;28;20224;-75
2020/12/29 10:22:14;;;;;;;1.20;0.90;;;;;;;8.15;50.15;93287.06;5068170;28;20201;-74
2020/12/29 10:24:40;;;;;;;1.03;0.90;;;;;;;8.20;49.61;93280.28;5064774;28;20668;-74
2020/12/29 10:27:06;;;;;;;1.40;0.90;;;;;;;8.22;49.48;93292.88;5046947;28;20205;-73
2020/12/29 10:29:32;;;;;;;1.03;0.93;;;;;;;8.31;49.79;93297.47;5047303;28;20213;-75
2020/12/29 10:31:58;;;;;;;1.50;0.90;;;;;;;8.35;50.15;93302.19;5046593;28;20220;-74
2020/12/29 10:34:24;;;;;;;2.83;1.03;;;;;;;8.24;50.06;93289.09;5047230;28;20312;-76
2020/12/29 10:36:50;;;;;;;1.33;1.00;;;;;;;8.28;50.86;93300.47;5048284;28;20209;-77
2020/12/29 10:39:16;;;;;;;1.50;0.90;;;;;;;8.29;50.07;93298.69;5047945;28;20228;-76
2020/12/29 10:41:42;;;;;;;1.30;0.93;;;;;;;8.21;49.88;93301.56;5047680;28;20197;-76
2020/12/29 10:44:10;;;;;;;2.30;1.20;;;;;;;8.25;50.51;93307.84;5051726;28;20200;-76
2020/12/29 10:46:36;;;;;;;2.07;1.30;;;;;;;8.29;50.88;93312.28;5067700;28;20201;-76
2020/12/29 10:49:02;;;;;;;1.07;0.93;;;;;;;8.27;50.79;93321.22;5067626;28;20211;-78
2020/12/29 10:51:28;;;;;;;1.33;0.90;;;;;;;8.25;50.64;93316.31;5068006;28;20204;-74
2020/12/29 10:53:55;;;;;;;1.73;1.00;;;;;;;8.21;50.60;93325.41;5067303;28;20298;-75
2020/12/29 10:56:21;;;;;;;1.63;1.20;;;;;;;8.00;51.02;93323.31;5067342;28;20322;-75
2020/12/29 10:58:47;;;;;;;0.80;0.80;;;;;;;7.90;51.49;93326.38;5067789;28;20227;-74
2020/12/29 11:01:19;;;;;;;2.07;0.90;;;;;;;7.85;52.18;93326.25;5067020;28;20704;-74
2020/12/29 11:03:45;;;;;;;1.70;1.00;;;;;;;7.87;52.31;93338.88;5066983;28;20674;-74
2020/12/29 11:06:12;;;;;;;2.80;1.10;;;;;;;7.78;52.01;93335.78;5067538;28;20287;-75
2020/12/29 11:08:38;;;;;;;1.10;0.97;;;;;;;7.56;52.58;93338.00;5067260;28;20196;-75
2020/12/29 11:11:04;;;;;;;0.90;0.80;;;;;;;7.54;52.83;93336.63;5067130;28;20232;-75
2020/12/29 11:13:30;;;;;;;1.10;0.97;;;;;;;7.59;52.82;93329.13;5067331;28;20686;-75
2020/12/29 11:15:56;;;;;;;2.03;1.00;;;;;;;7.65;52.08;93345.41;5066973;28;20278;-75
2020/12/29 11:18:22;;;;;;;1.53;1.00;;;;;;;7.68;52.35;93344.97;5067512;28;20197;-75
2020/12/29 11:20:50;;;;;;;1.13;1.00;;;;;;;7.67;52.45;93346.75;5067669;28;20220;-76
2020/12/29 11:23:16;;;;;;;1.37;0.90;;;;;;;7.76;52.46;93345.47;5067030;28;20196;-75
2020/12/29 11:25:42;;;;;;;1.07;0.97;;;;;;;7.72;52.62;93349.44;5067073;28;20196;-76
2020/12/29 11:28:08;;;;;;;1.33;0.93;;;;;;;7.55;52.44;93348.44;5067444;28;20291;-76
2020/12/29 11:30:34;;;;;;;1.03;0.90;;;;;;;7.26;52.92;93357.59;5067424;28;20286;-75
2020/12/29 11:32:59;;;;;;;1.57;1.20;;;;;;;7.06;53.61;93362.09;5067452;28;20201;-77
2020/12/29 11:35:26;;;;;;;1.53;1.10;;;;;;;7.05;54.18;93368.22;5066887;28;20221;-76
2020/12/29 11:37:52;;;;;;;1.57;1.00;;;;;;;7.00;53.92;93368.81;5067703;28;20621;-75
2020/12/29 11:40:18;;;;;;;1.57;1.20;;;;;;;7.01;54.20;93367.84;5067547;28;20227;-75
2020/12/29 11:42:44;;;;;;;2.17;1.33;;;;;;;6.97;54.27;93369.25;5067535;28;20246;-80